createdAt,value
2023-01-11T00:00:35.281Z,4.86
2023-01-11T00:03:04.667Z,4.84
2023-01-11T00:05:32.346Z,4.77
2023-01-11T00:08:00.176Z,4.77
2023-01-11T00:10:29.376Z,4.75
2023-01-11T00:12:56.915Z,4.79
2023-01-11T00:15:24.457Z,4.83
2023-01-11T00:17:52.359Z,4.87
2023-01-11T00:20:19.859Z,4.83
2023-01-11T00:22:47.427Z,4.91
2023-01-11T00:25:15.213Z,4.86
2023-01-11T00:27:42.691Z,4.87
2023-01-11T00:30:10.911Z,4.83
2023-01-11T00:32:38.763Z,4.81
2023-01-11T00:35:06.803Z,4.84
2023-01-11T00:37:34.543Z,4.86
2023-01-11T00:40:02.439Z,4.78
2023-01-11T00:42:48.351Z,4.78
2023-01-11T00:45:34.824Z,4.74
2023-01-11T00:48:05.496Z,4.77
2023-01-11T00:50:38.064Z,4.74
2023-01-11T00:53:06.638Z,4.73
2023-01-11T00:55:34.628Z,4.72
2023-01-11T00:58:02.796Z,4.72
2023-01-11T01:00:30.468Z,4.74
2023-01-11T01:02:58.329Z,4.68
2023-01-11T01:05:25.914Z,4.75
2023-01-11T01:07:53.487Z,4.68
2023-01-11T01:10:21.477Z,4.71
2023-01-11T01:13:07.136Z,4.65
2023-01-11T01:15:35.207Z,4.74
2023-01-11T01:18:02.824Z,4.66
2023-01-11T01:20:30.300Z,4.70
2023-01-11T01:22:58.128Z,4.68
2023-01-11T01:25:25.743Z,4.68
2023-01-11T01:27:53.220Z,4.66
2023-01-11T01:30:21.015Z,4.73
2023-01-11T01:32:48.508Z,4.68
2023-01-11T01:35:16.038Z,4.69
2023-01-11T01:37:44.850Z,4.71
2023-01-11T01:40:12.814Z,4.70
2023-01-11T01:42:40.286Z,4.70
2023-01-11T01:45:20.180Z,4.69
2023-01-11T01:47:52.663Z,4.66
2023-01-11T01:50:26.655Z,4.65
2023-01-11T01:52:57.714Z,4.61
2023-01-11T01:55:29.829Z,4.60
2023-01-11T01:57:58.727Z,4.62
2023-01-11T02:00:26.565Z,4.63
2023-01-11T02:02:55.965Z,4.62
2023-01-11T02:05:23.912Z,4.58
2023-01-11T02:07:52.117Z,4.56
2023-01-11T02:10:21.330Z,4.59
2023-01-11T02:13:00.945Z,4.59
2023-01-11T02:15:29.268Z,4.58
2023-01-11T02:17:57.054Z,4.69
2023-01-11T02:20:35.525Z,4.68
2023-01-11T02:23:27.517Z,4.62
2023-01-11T02:26:13.254Z,4.61
2023-01-11T02:29:06.911Z,4.58
2023-01-11T02:31:46.173Z,4.56
2023-01-11T02:34:19.710Z,4.54
2023-01-11T02:37:11.294Z,4.54
2023-01-11T02:40:04.240Z,4.53
2023-01-11T02:43:08.906Z,4.52
2023-01-11T02:45:59.929Z,4.54
2023-01-11T02:48:35.212Z,4.56
2023-01-11T02:51:11.209Z,4.52
2023-01-11T02:53:45.850Z,4.57
2023-01-11T02:56:20.187Z,4.55
2023-01-11T02:58:51.155Z,4.53
2023-01-11T03:01:22.650Z,4.53
2023-01-11T03:03:50.515Z,4.52
2023-01-11T03:06:23.112Z,4.54
2023-01-11T03:09:08.108Z,4.51
2023-01-11T03:12:14.583Z,4.45
2023-01-11T03:15:14.805Z,4.42
2023-01-11T03:18:28.314Z,4.40
2023-01-11T03:21:25.332Z,4.35
2023-01-11T03:23:58.946Z,4.35
2023-01-11T03:26:37.954Z,4.32
2023-01-11T03:29:20.902Z,4.28
2023-01-11T03:32:07.242Z,4.32
2023-01-11T03:34:40.469Z,4.24
2023-01-11T03:37:12.807Z,4.25
2023-01-11T03:39:42.978Z,4.22
2023-01-11T03:42:13.529Z,4.21
2023-01-11T03:44:44.056Z,4.21
2023-01-11T03:47:13.853Z,4.14
2023-01-11T03:49:57.408Z,4.19
2023-01-11T03:52:30.847Z,4.14
2023-01-11T03:54:59.510Z,4.15
2023-01-11T03:57:36.427Z,4.15
2023-01-11T04:00:05.622Z,4.13
2023-01-11T04:02:40.959Z,4.14
2023-01-11T04:05:10.209Z,4.19
2023-01-11T04:07:38.125Z,4.19
2023-01-11T04:10:06.211Z,4.17
2023-01-11T04:12:33.888Z,4.15
2023-01-11T04:15:03.221Z,4.13
2023-01-11T04:17:31.559Z,4.07
2023-01-11T04:19:59.198Z,4.13
2023-01-11T04:22:26.993Z,4.17
2023-01-11T04:24:54.492Z,4.20
2023-01-11T04:27:21.953Z,4.19
2023-01-11T04:29:49.850Z,4.15
2023-01-11T04:32:17.685Z,4.14
2023-01-11T04:34:45.528Z,4.11
2023-01-11T04:37:13.309Z,4.17
2023-01-11T04:39:40.837Z,4.15
2023-01-11T04:42:18.488Z,4.14
2023-01-11T04:44:48.756Z,4.07
2023-01-11T04:47:16.887Z,4.21
2023-01-11T04:49:46.298Z,4.13
2023-01-11T04:52:15.788Z,4.10
2023-01-11T04:54:44.180Z,4.02
2023-01-11T04:57:13.588Z,4.03
2023-01-11T04:59:41.733Z,4.02
2023-01-11T05:02:09.373Z,4.00
2023-01-11T05:04:36.944Z,3.95
2023-01-11T05:07:04.802Z,3.92
2023-01-11T05:09:32.322Z,3.87
2023-01-11T05:11:59.853Z,3.83
2023-01-11T05:14:27.756Z,3.81
2023-01-11T05:16:55.270Z,3.79
2023-01-11T05:19:22.806Z,3.79
2023-01-11T05:21:50.724Z,3.76
2023-01-11T05:24:18.524Z,3.74
2023-01-11T05:26:46.384Z,3.75
2023-01-11T05:29:20.484Z,3.74
2023-01-11T05:31:48.522Z,3.76
2023-01-11T05:34:17.491Z,3.69
2023-01-11T05:36:45.332Z,3.75
2023-01-11T05:39:13.838Z,3.69
2023-01-11T05:41:42.112Z,3.77
2023-01-11T05:44:31.472Z,3.74
2023-01-11T05:46:59.630Z,3.75
2023-01-11T05:49:27.282Z,3.72
2023-01-11T05:51:54.905Z,3.73
2023-01-11T05:54:22.695Z,3.68
2023-01-11T05:56:50.227Z,3.70
2023-01-11T05:59:17.841Z,3.71
2023-01-11T06:01:46.142Z,3.69
2023-01-11T06:04:14.571Z,3.66
2023-01-11T06:06:42.189Z,3.67
2023-01-11T06:09:09.817Z,3.59
2023-01-11T06:11:37.699Z,3.65
2023-01-11T06:14:05.322Z,3.62
2023-01-11T06:16:32.909Z,3.58
2023-01-11T06:19:01.053Z,3.59
2023-01-11T06:21:28.710Z,3.56
2023-01-11T06:23:56.294Z,3.57
2023-01-11T06:26:24.608Z,3.54
2023-01-11T06:28:52.709Z,3.56
2023-01-11T06:31:20.468Z,3.45
2023-01-11T06:33:48.513Z,3.55
2023-01-11T06:36:16.606Z,3.57
2023-01-11T06:38:44.632Z,3.58
2023-01-11T06:41:13.423Z,3.57
2023-01-11T06:43:42.145Z,3.60
2023-01-11T06:46:13.289Z,3.61
2023-01-11T06:48:41.207Z,3.61
2023-01-11T06:51:12.031Z,3.61
2023-01-11T06:53:41.307Z,3.60
2023-01-11T06:56:13.533Z,3.61
2023-01-11T06:58:41.298Z,3.60
2023-01-11T07:01:09.950Z,3.61
2023-01-11T07:03:39.320Z,3.67
2023-01-11T07:06:07.252Z,3.69
2023-01-11T07:08:35.100Z,3.68
2023-01-11T07:11:03.050Z,3.68
2023-01-11T07:13:30.718Z,3.63
2023-01-11T07:15:58.624Z,3.65
2023-01-11T07:18:27.181Z,3.67
2023-01-11T07:20:55.617Z,3.69
2023-01-11T07:23:23.456Z,3.69
2023-01-11T07:25:51.098Z,3.70
2023-01-11T07:28:18.742Z,3.72
2023-01-11T07:30:58.351Z,3.71
2023-01-11T07:33:26.940Z,3.72
2023-01-11T07:35:54.978Z,3.75
2023-01-11T07:38:22.848Z,3.78
2023-01-11T07:40:50.630Z,3.84
2023-01-11T07:43:20.067Z,3.86
2023-01-11T07:45:49.866Z,3.88
2023-01-11T07:48:25.324Z,3.90
2023-01-11T07:50:53.571Z,3.97
2023-01-11T07:53:21.885Z,4.05
2023-01-11T07:55:49.511Z,4.06
2023-01-11T07:58:17.130Z,4.13
2023-01-11T08:00:46.157Z,4.20
2023-01-11T08:03:14.413Z,4.18
2023-01-11T08:05:42.477Z,4.16
2023-01-11T08:08:10.464Z,4.26
2023-01-11T08:10:41.129Z,4.28
2023-01-11T08:13:31.473Z,4.37
2023-01-11T08:16:00.102Z,4.43
2023-01-11T08:18:27.804Z,4.67
2023-01-11T08:20:55.512Z,4.79
2023-01-11T08:23:23.582Z,4.85
2023-01-11T08:25:56.589Z,4.87
2023-01-11T08:28:24.748Z,4.92
2023-01-11T08:30:52.507Z,4.93
2023-01-11T08:33:20.041Z,4.85
2023-01-11T08:35:48.044Z,4.95
2023-01-11T08:38:15.607Z,4.97
2023-01-11T08:40:43.222Z,5.04
2023-01-11T08:43:11.130Z,4.98
2023-01-11T08:45:38.748Z,5.10
2023-01-11T08:48:06.907Z,5.06
2023-01-11T08:50:34.771Z,5.16
2023-01-11T08:53:02.444Z,5.19
2023-01-11T08:55:30.919Z,5.25
2023-01-11T08:57:58.737Z,5.30
2023-01-11T09:00:26.422Z,5.32
2023-01-11T09:02:54.141Z,5.36
2023-01-11T09:05:22.437Z,5.34
2023-01-11T09:07:50.046Z,5.38
2023-01-11T09:10:17.819Z,5.40
2023-01-11T09:12:45.762Z,5.43
2023-01-11T09:15:13.624Z,5.40
2023-01-11T09:17:41.110Z,5.38
2023-01-11T09:20:12.047Z,5.46
2023-01-11T09:22:39.849Z,5.47
2023-01-11T09:25:08.467Z,5.42
2023-01-11T09:27:36.355Z,5.38
2023-01-11T09:30:05.616Z,5.41
2023-01-11T09:32:35.812Z,5.32
2023-01-11T09:35:04.811Z,5.41
2023-01-11T09:37:32.738Z,5.40
2023-01-11T09:40:01.623Z,5.41
2023-01-11T09:42:39.782Z,5.45
2023-01-11T09:45:18.474Z,5.44
2023-01-11T09:48:12.629Z,5.44
2023-01-11T09:50:43.545Z,5.43
2023-01-11T09:53:27.246Z,5.49
2023-01-11T09:55:58.165Z,5.50
2023-01-11T09:58:51.167Z,5.58
2023-01-11T10:01:30.003Z,5.65
2023-01-11T10:04:21.958Z,5.66
2023-01-11T10:07:34.816Z,5.78
2023-01-11T10:18:32.892Z,6.05
2023-01-11T10:19:45.362Z,6.10
2023-01-11T10:22:24.866Z,5.97
2023-01-11T10:25:21.956Z,5.98
2023-01-11T10:27:56.864Z,6.10
2023-01-11T10:31:08.390Z,6.23
2023-01-11T10:33:58.268Z,6.43
2023-01-11T10:36:38.250Z,6.58
2023-01-11T10:39:23.822Z,6.53
2023-01-11T10:42:01.520Z,6.69
2023-01-11T10:44:48.723Z,6.70
2023-01-11T10:47:20.332Z,6.51
2023-01-11T10:49:56.058Z,6.54
2023-01-11T10:52:41.671Z,6.57
2023-01-11T10:55:16.009Z,6.69
2023-01-11T10:58:06.992Z,6.70
2023-01-11T11:00:48.743Z,6.90
2023-01-11T11:03:25.841Z,6.77
2023-01-11T11:05:59.743Z,6.80
2023-01-11T11:08:53.791Z,7.17
2023-01-11T11:11:38.520Z,7.04
2023-01-11T11:14:19.862Z,6.98
2023-01-11T11:16:53.740Z,6.93
2023-01-11T11:19:25.797Z,7.11
2023-01-11T11:21:53.928Z,6.71
2023-01-11T11:24:33.225Z,6.77
2023-01-11T11:27:22.594Z,6.68
2023-01-11T11:29:55.821Z,6.75
2023-01-11T11:32:27.930Z,6.78
2023-01-11T11:34:55.790Z,6.94
2023-01-11T11:37:32.408Z,6.81
2023-01-11T11:40:00.444Z,6.82
2023-01-11T11:42:28.529Z,6.89
2023-01-11T11:45:17.953Z,7.01
2023-01-11T11:48:03.557Z,7.06
2023-01-11T11:50:44.346Z,7.14
2023-01-11T11:53:44.224Z,7.18
2023-01-11T11:56:16.068Z,7.19
2023-01-11T11:58:44.719Z,7.19
2023-01-11T12:01:33.060Z,7.19
2023-01-11T12:07:20.584Z,7.06
2023-01-11T12:09:55.108Z,7.12
2023-01-11T12:12:25.924Z,7.25
2023-01-11T12:15:23.886Z,7.31
2023-01-11T12:17:52.350Z,7.37
2023-01-11T12:20:24.016Z,7.31
2023-01-11T12:23:21.837Z,7.24
2023-01-11T12:26:20.165Z,7.32
2023-01-11T12:29:24.859Z,7.32
2023-01-11T12:32:28.427Z,7.34
2023-01-11T12:34:59.895Z,7.28
2023-01-11T12:37:53.423Z,7.24
2023-01-11T12:40:32.163Z,7.21
2023-01-11T12:43:10.866Z,7.25
2023-01-11T12:45:55.244Z,7.24
2023-01-11T12:48:50.373Z,7.31
2023-01-11T12:51:41.300Z,7.31
2023-01-11T12:54:34.463Z,7.37
2023-01-11T12:58:03.457Z,7.30
2023-01-11T13:01:37.438Z,7.42
2023-01-11T13:08:38.787Z,7.44
2023-01-11T13:19:30.528Z,7.57
2023-01-11T13:22:24.515Z,7.66
2023-01-11T13:25:46.659Z,7.58
2023-01-11T13:29:13.669Z,7.52
2023-01-11T13:31:42.477Z,7.54
2023-01-11T13:34:34.036Z,7.57
2023-01-11T13:37:20.472Z,7.54
2023-01-11T13:40:03.690Z,7.56
2023-01-11T13:42:38.176Z,7.53
2023-01-11T13:45:19.013Z,7.48
2023-01-11T13:47:49.844Z,7.46
2023-01-11T13:50:31.346Z,7.45
2023-01-11T13:53:10.165Z,7.44
2023-01-11T13:55:56.987Z,7.41
2023-01-11T13:58:32.484Z,7.37
2023-01-11T14:01:00.450Z,7.43
2023-01-11T14:03:32.364Z,7.39
2023-01-11T14:06:31.350Z,7.38
2023-01-11T14:09:31.791Z,7.38
2023-01-11T14:12:09.969Z,7.37
2023-01-11T14:14:56.209Z,7.32
2023-01-11T14:17:45.072Z,7.33
2023-01-11T14:20:36.855Z,7.30
2023-01-11T14:23:12.083Z,7.23
2023-01-11T14:25:58.736Z,7.16
2023-01-11T14:28:54.407Z,7.21
2023-01-11T14:31:53.627Z,7.15
2023-01-11T14:34:36.377Z,7.11
2023-01-11T14:37:23.762Z,7.06
2023-01-11T14:39:58.383Z,7.04
2023-01-11T14:42:52.768Z,6.96
2023-01-11T14:45:27.521Z,6.88
2023-01-11T14:48:36.108Z,6.87
2023-01-11T14:51:18.865Z,6.86
2023-01-11T14:53:52.682Z,6.80
2023-01-11T14:56:42.186Z,6.73
2023-01-11T14:59:24.848Z,6.38
2023-01-11T15:02:05.000Z,6.28
2023-01-11T15:04:38.176Z,6.15
2023-01-11T15:07:31.663Z,6.15
2023-01-11T15:10:04.608Z,6.14
2023-01-11T15:12:34.322Z,6.11
2023-01-11T15:15:11.520Z,6.10
2023-01-11T15:17:58.321Z,6.05
2023-01-11T15:20:26.795Z,6.07
2023-01-11T15:22:56.668Z,5.93
2023-01-11T15:25:25.821Z,5.87
2023-01-11T15:27:54.597Z,5.83
2023-01-11T15:30:31.134Z,5.79
2023-01-11T15:33:17.163Z,5.78
2023-01-11T15:36:03.763Z,5.68
2023-01-11T15:38:45.354Z,5.69
2023-01-11T15:41:35.647Z,5.61
2023-01-11T15:44:25.279Z,5.53
2023-01-11T15:47:07.275Z,5.48
2023-01-11T15:49:58.461Z,5.47
2023-01-11T15:52:53.981Z,5.43
2023-01-11T15:55:40.092Z,5.29
2023-01-11T15:58:44.900Z,5.27
2023-01-11T16:01:22.489Z,5.26
2023-01-11T16:04:23.790Z,5.21
2023-01-11T16:06:53.102Z,5.17
2023-01-11T16:09:42.731Z,5.13
2023-01-11T16:12:47.849Z,5.06
2023-01-11T16:15:31.231Z,4.95
2023-01-11T16:18:11.053Z,4.90
2023-01-11T16:20:40.343Z,4.87
2023-01-11T16:23:08.179Z,4.86
2023-01-11T16:25:38.532Z,4.76
2023-01-11T16:28:07.717Z,4.69
2023-01-11T16:30:35.328Z,4.60
2023-01-11T16:33:14.687Z,4.49
2023-01-11T16:35:42.964Z,4.44
2023-01-11T16:38:17.755Z,4.44
2023-01-11T16:40:49.050Z,4.29
2023-01-11T16:43:29.185Z,4.37
2023-01-11T16:45:57.178Z,4.27
2023-01-11T16:48:29.626Z,4.25
2023-01-11T16:51:03.877Z,4.22
2023-01-11T16:53:40.187Z,4.28
2023-01-11T16:56:15.446Z,4.22
2023-01-11T16:58:43.524Z,4.16
2023-01-11T17:01:13.816Z,4.20
2023-01-11T17:03:52.055Z,4.14
2023-01-11T17:06:22.819Z,3.97
2023-01-11T17:08:52.268Z,3.88
2023-01-11T17:11:27.671Z,3.88
2023-01-11T17:14:37.279Z,3.80
2023-01-11T17:17:07.390Z,3.80
2023-01-11T17:19:46.117Z,3.71
2023-01-11T17:22:22.026Z,3.76
2023-01-11T17:25:06.192Z,3.75
2023-01-11T17:27:40.627Z,3.77
2023-01-11T17:30:17.963Z,3.71
2023-01-11T17:32:48.254Z,3.61
2023-01-11T17:35:18.438Z,3.55
2023-01-11T17:37:49.018Z,3.52
2023-01-11T17:40:31.873Z,3.49
2023-01-11T17:43:30.326Z,3.42
2023-01-11T17:45:58.854Z,3.27
2023-01-11T17:48:27.542Z,3.36
2023-01-11T17:50:59.823Z,3.40
2023-01-11T17:53:32.492Z,3.39
2023-01-11T17:56:01.150Z,3.40
2023-01-11T17:58:30.539Z,3.45
2023-01-11T18:01:09.872Z,3.43
2023-01-11T18:03:50.677Z,3.36
2023-01-11T18:06:41.871Z,3.37
2023-01-11T18:09:22.617Z,3.36
2023-01-11T18:11:51.347Z,3.33
2023-01-11T18:14:27.993Z,3.41
2023-01-11T18:17:03.798Z,3.45
2023-01-11T18:19:31.903Z,3.49
2023-01-11T18:21:59.491Z,3.50
2023-01-11T18:24:33.514Z,3.48
2023-01-11T18:27:16.352Z,3.44
2023-01-11T18:29:48.097Z,3.52
2023-01-11T18:32:16.267Z,3.57
2023-01-11T18:34:46.570Z,3.60
2023-01-11T18:37:14.202Z,3.65
2023-01-11T18:39:42.864Z,3.71
2023-01-11T18:42:15.818Z,3.76
2023-01-11T18:44:46.849Z,3.77
2023-01-11T18:47:26.651Z,3.78
2023-01-11T18:49:54.657Z,3.79
2023-01-11T18:52:27.806Z,3.78
2023-01-11T18:54:56.563Z,3.82
2023-01-11T18:57:24.655Z,3.88
2023-01-11T18:59:57.124Z,3.88
2023-01-11T19:02:30.615Z,3.91
2023-01-11T19:04:58.612Z,3.95
2023-01-11T19:07:26.863Z,4.01
2023-01-11T19:09:55.089Z,4.06
2023-01-11T19:12:23.780Z,4.10
2023-01-11T19:14:51.820Z,4.15
2023-01-11T19:17:19.430Z,4.19
2023-01-11T19:19:47.914Z,4.22
2023-01-11T19:22:15.855Z,4.26
2023-01-11T19:24:43.285Z,4.29
2023-01-11T19:27:13.638Z,4.31
2023-01-11T19:29:42.718Z,4.32
2023-01-11T19:32:10.324Z,4.32
2023-01-11T19:34:39.789Z,4.35
2023-01-11T19:37:07.908Z,4.35
2023-01-11T19:39:36.888Z,4.33
2023-01-11T19:42:05.047Z,4.25
2023-01-11T19:44:34.852Z,4.32
2023-01-11T19:47:11.529Z,4.30
2023-01-11T19:49:41.910Z,4.27
2023-01-11T19:52:18.851Z,4.20
2023-01-11T19:54:47.087Z,4.22
2023-01-11T19:57:18.752Z,4.21
2023-01-11T19:59:47.186Z,4.23
2023-01-11T20:02:17.070Z,4.26
2023-01-11T20:04:45.000Z,4.15
2023-01-11T20:07:13.545Z,4.19
2023-01-11T20:09:41.395Z,4.17
2023-01-11T20:12:11.646Z,4.10
2023-01-11T20:14:40.542Z,4.17
2023-01-11T20:17:08.731Z,4.16
2023-01-11T20:19:36.976Z,4.15
2023-01-11T20:22:05.332Z,4.22
2023-01-11T20:24:33.095Z,4.14
2023-01-11T20:27:02.763Z,4.12
2023-01-11T20:29:30.844Z,4.12
2023-01-11T20:32:18.686Z,4.17
2023-01-11T20:34:46.617Z,4.24
2023-01-11T20:37:15.186Z,4.18
2023-01-11T20:39:42.841Z,4.18
2023-01-11T20:42:12.614Z,4.24
2023-01-11T20:44:40.421Z,4.14
2023-01-11T20:47:08.302Z,4.20
2023-01-11T20:49:36.173Z,4.22
2023-01-11T20:52:04.418Z,4.24
2023-01-11T20:54:32.202Z,4.30
2023-01-11T20:57:05.349Z,4.33
2023-01-11T20:59:32.929Z,4.35
2023-01-11T21:02:00.995Z,4.35
2023-01-11T21:04:28.785Z,4.38
2023-01-11T21:06:56.397Z,4.37
2023-01-11T21:09:24.207Z,4.32
2023-01-11T21:11:54.392Z,4.23
2023-01-11T21:14:22.499Z,4.28
2023-01-11T21:16:50.311Z,4.28
2023-01-11T21:19:18.506Z,4.24
2023-01-11T21:21:47.457Z,4.19
2023-01-11T21:24:16.983Z,4.15
2023-01-11T21:26:45.868Z,4.09
2023-01-11T21:29:13.867Z,3.95
2023-01-11T21:31:42.081Z,3.72
2023-01-11T21:34:13.129Z,3.71
2023-01-11T21:36:41.352Z,3.72
2023-01-11T21:39:13.078Z,3.76
2023-01-11T21:41:56.126Z,3.76
2023-01-11T21:44:28.075Z,3.80
2023-01-11T21:46:55.926Z,3.80
2023-01-11T21:49:24.420Z,3.78
2023-01-11T21:51:52.156Z,3.71
2023-01-11T21:54:20.243Z,3.67
2023-01-11T21:56:48.440Z,3.58
2023-01-11T21:59:16.258Z,3.51
2023-01-11T22:01:45.249Z,3.48
2023-01-11T22:04:16.150Z,3.49
2023-01-11T22:06:51.210Z,3.51
2023-01-11T22:09:20.348Z,3.47
2023-01-11T22:11:48.173Z,3.35
2023-01-11T22:14:15.771Z,3.37
2023-01-11T22:16:43.680Z,3.27
2023-01-11T22:19:11.382Z,3.29
2023-01-11T22:21:39.247Z,3.39
2023-01-11T22:24:10.361Z,3.45
2023-01-11T22:26:39.059Z,3.54
2023-01-11T22:29:17.670Z,3.61
2023-01-11T22:31:48.911Z,3.58
2023-01-11T22:34:17.547Z,3.59
2023-01-11T22:36:45.628Z,3.61
2023-01-11T22:39:14.383Z,3.69
2023-01-11T22:41:45.507Z,3.76
2023-01-11T22:44:13.861Z,3.81
2023-01-11T22:46:42.161Z,3.77
2023-01-11T22:49:10.673Z,3.75
2023-01-11T22:51:38.432Z,3.80
2023-01-11T22:54:06.137Z,3.85
2023-01-11T22:56:34.016Z,3.91
2023-01-11T22:59:02.587Z,3.84
2023-01-11T23:01:32.980Z,3.76
2023-01-11T23:04:01.302Z,3.65
2023-01-11T23:06:34.321Z,3.73
2023-01-11T23:09:02.612Z,3.78
2023-01-11T23:11:51.055Z,3.82
2023-01-11T23:14:19.760Z,3.89
2023-01-11T23:16:49.550Z,3.79
2023-01-11T23:19:19.813Z,3.65
2023-01-11T23:21:47.941Z,3.61
2023-01-11T23:24:16.662Z,3.63
2023-01-11T23:26:45.422Z,3.66
2023-01-11T23:29:13.456Z,3.71
2023-01-11T23:31:42.908Z,3.64
2023-01-11T23:34:11.919Z,3.76
2023-01-11T23:36:41.660Z,3.77
2023-01-11T23:39:16.961Z,3.84
2023-01-11T23:42:03.319Z,3.90
2023-01-11T23:44:30.940Z,3.94
2023-01-11T23:47:17.552Z,3.92
2023-01-11T23:49:45.596Z,3.87
2023-01-11T23:52:14.037Z,3.86
2023-01-11T23:54:41.764Z,3.93
2023-01-11T23:57:12.288Z,3.88
2023-01-11T23:59:41.265Z,3.85
